sensor_id;sensor_type;location;lat;lon;timestamp;pressure;altitude;pressure_sealevel;temperature;humidity
27202;BME280;14717;46.924;15.474;2024-02-16T00:01:16;98302.03;;;2.09;100.00
27202;BME280;14717;46.924;15.474;2024-02-16T00:03:42;98299.31;;;2.09;100.00
27202;BME280;14717;46.924;15.474;2024-02-16T00:06:07;98303.31;;;2.06;100.00
27202;BME280;14717;46.924;15.474;2024-02-16T00:08:32;98308.69;;;2.12;100.00
27202;BME280;14717;46.924;15.474;2024-02-16T00:10:59;98291.25;;;2.02;100.00
27202;BME280;14717;46.924;15.474;2024-02-16T00:13:25;98292.16;;;1.96;100.00
27202;BME280;14717;46.924;15.474;2024-02-16T00:15:50;98301.06;;;1.85;100.00
27202;BME280;14717;46.924;15.474;2024-02-16T00:18:15;98298.91;;;1.76;100.00
27202;BME280;14717;46.924;15.474;2024-02-16T00:20:41;98306.13;;;1.82;100.00
27202;BME280;14717;46.924;15.474;2024-02-16T00:23:06;98302.66;;;1.93;100.00
27202;BME280;14717;46.924;15.474;2024-02-16T00:25:32;98298.56;;;2.02;100.00
27202;BME280;14717;46.924;15.474;2024-02-16T00:27:57;98305.00;;;2.07;100.00
27202;BME280;14717;46.924;15.474;2024-02-16T00:30:22;98300.22;;;2.03;100.00
27202;BME280;14717;46.924;15.474;2024-02-16T00:32:48;98297.97;;;2.00;100.00
27202;BME280;14717;46.924;15.474;2024-02-16T00:35:16;98298.25;;;2.10;100.00
27202;BME280;14717;46.924;15.474;2024-02-16T00:37:43;98302.50;;;2.06;100.00
27202;BME280;14717;46.924;15.474;2024-02-16T00:40:09;98306.44;;;1.92;100.00
27202;BME280;14717;46.924;15.474;2024-02-16T00:42:34;98302.88;;;1.91;100.00
27202;BME280;14717;46.924;15.474;2024-02-16T00:44:59;98297.97;;;1.64;100.00
27202;BME280;14717;46.924;15.474;2024-02-16T00:47:29;98294.72;;;1.56;100.00
27202;BME280;14717;46.924;15.474;2024-02-16T00:49:54;98306.59;;;1.43;100.00
27202;BME280;14717;46.924;15.474;2024-02-16T00:52:20;98299.34;;;1.55;100.00
27202;BME280;14717;46.924;15.474;2024-02-16T00:54:45;98296.84;;;1.54;100.00
27202;BME280;14717;46.924;15.474;2024-02-16T00:57:12;98299.34;;;1.55;100.00
27202;BME280;14717;46.924;15.474;2024-02-16T00:59:39;98294.78;;;1.67;100.00
27202;BME280;14717;46.924;15.474;2024-02-16T01:02:04;98286.94;;;1.77;100.00
27202;BME280;14717;46.924;15.474;2024-02-16T01:04:30;98298.34;;;1.67;100.00
27202;BME280;14717;46.924;15.474;2024-02-16T01:06:55;98292.81;;;1.74;100.00
27202;BME280;14717;46.924;15.474;2024-02-16T01:09:21;98296.78;;;1.78;100.00
27202;BME280;14717;46.924;15.474;2024-02-16T01:11:46;98290.44;;;1.66;100.00
27202;BME280;14717;46.924;15.474;2024-02-16T01:14:12;98292.50;;;1.64;100.00
27202;BME280;14717;46.924;15.474;2024-02-16T01:16:38;98293.59;;;1.63;100.00
27202;BME280;14717;46.924;15.474;2024-02-16T01:19:03;98294.34;;;1.52;100.00
27202;BME280;14717;46.924;15.474;2024-02-16T01:21:28;98299.63;;;1.47;100.00
27202;BME280;14717;46.924;15.474;2024-02-16T01:23:54;98296.97;;;1.41;100.00
27202;BME280;14717;46.924;15.474;2024-02-16T01:26:19;98295.75;;;1.37;100.00
27202;BME280;14717;46.924;15.474;2024-02-16T01:28:44;98284.44;;;1.40;100.00
27202;BME280;14717;46.924;15.474;2024-02-16T01:31:10;98288.31;;;1.26;100.00
27202;BME280;14717;46.924;15.474;2024-02-16T01:33:36;98295.44;;;1.27;100.00
27202;BME280;14717;46.924;15.474;2024-02-16T01:36:03;98286.63;;;1.31;100.00
27202;BME280;14717;46.924;15.474;2024-02-16T01:38:28;98287.88;;;1.29;100.00
27202;BME280;14717;46.924;15.474;2024-02-16T01:40:54;98290.00;;;1.27;100.00
27202;BME280;14717;46.924;15.474;2024-02-16T01:43:20;98286.00;;;1.29;100.00
27202;BME280;14717;46.924;15.474;2024-02-16T01:45:45;98289.03;;;1.39;100.00
27202;BME280;14717;46.924;15.474;2024-02-16T01:48:11;98300.69;;;1.46;100.00
27202;BME280;14717;46.924;15.474;2024-02-16T01:50:37;98295.84;;;1.48;100.00
27202;BME280;14717;46.924;15.474;2024-02-16T01:53:03;98295.25;;;1.46;100.00
27202;BME280;14717;46.924;15.474;2024-02-16T01:55:29;98292.06;;;1.31;100.00
27202;BME280;14717;46.924;15.474;2024-02-16T01:57:55;98282.34;;;1.18;100.00
27202;BME280;14717;46.924;15.474;2024-02-16T02:00:22;98283.97;;;1.01;100.00
27202;BME280;14717;46.924;15.474;2024-02-16T02:02:48;98285.28;;;0.92;100.00
27202;BME280;14717;46.924;15.474;2024-02-16T02:05:13;98287.56;;;0.95;100.00
27202;BME280;14717;46.924;15.474;2024-02-16T02:07:40;98290.28;;;0.95;100.00
27202;BME280;14717;46.924;15.474;2024-02-16T02:10:06;98283.22;;;0.94;100.00
27202;BME280;14717;46.924;15.474;2024-02-16T02:12:31;98278.97;;;0.98;100.00
27202;BME280;14717;46.924;15.474;2024-02-16T02:14:57;98271.91;;;1.15;100.00
27202;BME280;14717;46.924;15.474;2024-02-16T02:17:22;98281.88;;;1.03;100.00
27202;BME280;14717;46.924;15.474;2024-02-16T02:19:48;98281.41;;;1.06;100.00
27202;BME280;14717;46.924;15.474;2024-02-16T02:22:18;98274.75;;;1.02;100.00
27202;BME280;14717;46.924;15.474;2024-02-16T02:24:45;98280.66;;;0.99;100.00
27202;BME280;14717;46.924;15.474;2024-02-16T02:27:11;98274.41;;;0.92;100.00
27202;BME280;14717;46.924;15.474;2024-02-16T02:29:38;98276.53;;;0.90;100.00
27202;BME280;14717;46.924;15.474;2024-02-16T02:32:04;98273.31;;;0.99;100.00
27202;BME280;14717;46.924;15.474;2024-02-16T02:34:29;98264.88;;;1.07;100.00
27202;BME280;14717;46.924;15.474;2024-02-16T02:36:55;98265.72;;;1.08;100.00
27202;BME280;14717;46.924;15.474;2024-02-16T02:39:20;98262.53;;;1.11;100.00
27202;BME280;14717;46.924;15.474;2024-02-16T02:41:46;98267.22;;;1.04;100.00
27202;BME280;14717;46.924;15.474;2024-02-16T02:44:11;98270.97;;;1.03;100.00
27202;BME280;14717;46.924;15.474;2024-02-16T02:46:37;98261.31;;;1.07;100.00
27202;BME280;14717;46.924;15.474;2024-02-16T02:49:02;98257.94;;;1.11;100.00
27202;BME280;14717;46.924;15.474;2024-02-16T02:51:29;98262.75;;;1.09;100.00
27202;BME280;14717;46.924;15.474;2024-02-16T02:53:54;98261.16;;;1.02;100.00
27202;BME280;14717;46.924;15.474;2024-02-16T02:56:19;98260.56;;;1.00;100.00
27202;BME280;14717;46.924;15.474;2024-02-16T02:58:45;98256.47;;;0.91;100.00
27202;BME280;14717;46.924;15.474;2024-02-16T03:01:10;98266.38;;;1.03;100.00
27202;BME280;14717;46.924;15.474;2024-02-16T03:03:36;98259.13;;;0.73;100.00
27202;BME280;14717;46.924;15.474;2024-02-16T03:06:02;98263.47;;;0.81;100.00
27202;BME280;14717;46.924;15.474;2024-02-16T03:08:28;98258.75;;;0.94;100.00
27202;BME280;14717;46.924;15.474;2024-02-16T03:10:53;98256.47;;;0.91;100.00
27202;BME280;14717;46.924;15.474;2024-02-16T03:13:19;98250.13;;;0.97;100.00
27202;BME280;14717;46.924;15.474;2024-02-16T03:15:45;98247.06;;;0.87;100.00
27202;BME280;14717;46.924;15.474;2024-02-16T03:18:10;98251.34;;;0.77;100.00
27202;BME280;14717;46.924;15.474;2024-02-16T03:20:36;98243.16;;;0.83;100.00
27202;BME280;14717;46.924;15.474;2024-02-16T03:23:01;98248.16;;;0.86;100.00
27202;BME280;14717;46.924;15.474;2024-02-16T03:25:28;98248.03;;;0.75;100.00
27202;BME280;14717;46.924;15.474;2024-02-16T03:27:53;98257.19;;;0.80;100.00
27202;BME280;14717;46.924;15.474;2024-02-16T03:30:19;98262.72;;;0.67;100.00
27202;BME280;14717;46.924;15.474;2024-02-16T03:32:51;98258.63;;;0.58;100.00
27202;BME280;14717;46.924;15.474;2024-02-16T03:35:17;98259.78;;;0.44;100.00
27202;BME280;14717;46.924;15.474;2024-02-16T03:37:43;98253.53;;;0.38;100.00
27202;BME280;14717;46.924;15.474;2024-02-16T03:40:09;98256.91;;;0.40;100.00
27202;BME280;14717;46.924;15.474;2024-02-16T03:42:38;98261.66;;;0.44;100.00
27202;BME280;14717;46.924;15.474;2024-02-16T03:45:04;98264.75;;;0.47;100.00
27202;BME280;14717;46.924;15.474;2024-02-16T03:47:29;98270.09;;;0.60;100.00
27202;BME280;14717;46.924;15.474;2024-02-16T03:49:54;98263.19;;;0.64;100.00
27202;BME280;14717;46.924;15.474;2024-02-16T03:52:20;98266.78;;;0.58;100.00
27202;BME280;14717;46.924;15.474;2024-02-16T03:54:45;98267.59;;;0.59;100.00
27202;BME280;14717;46.924;15.474;2024-02-16T03:57:14;98274.22;;;0.69;100.00
27202;BME280;14717;46.924;15.474;2024-02-16T03:59:42;98273.88;;;0.59;100.00
27202;BME280;14717;46.924;15.474;2024-02-16T04:02:09;98270.69;;;0.38;100.00
27202;BME280;14717;46.924;15.474;2024-02-16T04:04:35;98283.72;;;0.30;100.00
27202;BME280;14717;46.924;15.474;2024-02-16T04:07:01;98275.28;;;0.38;100.00
27202;BME280;14717;46.924;15.474;2024-02-16T04:09:26;98283.88;;;0.35;100.00
27202;BME280;14717;46.924;15.474;2024-02-16T04:11:51;98271.78;;;0.31;100.00
27202;BME280;14717;46.924;15.474;2024-02-16T04:14:17;98269.78;;;0.44;100.00
27202;BME280;14717;46.924;15.474;2024-02-16T04:16:43;98272.63;;;0.55;100.00
27202;BME280;14717;46.924;15.474;2024-02-16T04:19:09;98270.47;;;0.64;100.00
27202;BME280;14717;46.924;15.474;2024-02-16T04:21:34;98275.09;;;0.63;100.00
27202;BME280;14717;46.924;15.474;2024-02-16T04:23:59;98280.53;;;0.63;100.00
27202;BME280;14717;46.924;15.474;2024-02-16T04:26:25;98281.94;;;0.42;100.00
27202;BME280;14717;46.924;15.474;2024-02-16T04:28:50;98290.59;;;0.26;100.00
27202;BME280;14717;46.924;15.474;2024-02-16T04:31:16;98288.63;;;0.08;100.00
27202;BME280;14717;46.924;15.474;2024-02-16T04:33:41;98290.50;;;0.08;100.00
27202;BME280;14717;46.924;15.474;2024-02-16T04:36:07;98281.31;;;0.09;100.00
27202;BME280;14717;46.924;15.474;2024-02-16T04:38:32;98279.13;;;0.24;100.00
27202;BME280;14717;46.924;15.474;2024-02-16T04:40:58;98299.16;;;0.29;100.00
27202;BME280;14717;46.924;15.474;2024-02-16T04:43:23;98287.72;;;0.21;100.00
27202;BME280;14717;46.924;15.474;2024-02-16T04:45:49;98291.97;;;0.10;100.00
27202;BME280;14717;46.924;15.474;2024-02-16T04:48:14;98293.03;;;0.03;100.00
27202;BME280;14717;46.924;15.474;2024-02-16T04:50:40;98285.56;;;-0.01;100.00
27202;BME280;14717;46.924;15.474;2024-02-16T04:53:05;98292.59;;;0.06;100.00
27202;BME280;14717;46.924;15.474;2024-02-16T04:55:30;98287.09;;;0.19;100.00
27202;BME280;14717;46.924;15.474;2024-02-16T04:57:56;98286.47;;;0.23;100.00
27202;BME280;14717;46.924;15.474;2024-02-16T05:00:22;98282.84;;;0.29;100.00
27202;BME280;14717;46.924;15.474;2024-02-16T05:02:48;98284.09;;;0.33;100.00
27202;BME280;14717;46.924;15.474;2024-02-16T05:05:13;98282.03;;;0.29;100.00
27202;BME280;14717;46.924;15.474;2024-02-16T05:07:42;98285.22;;;0.19;100.00
27202;BME280;14717;46.924;15.474;2024-02-16T05:10:10;98279.75;;;0.26;100.00
27202;BME280;14717;46.924;15.474;2024-02-16T05:12:36;98281.50;;;0.14;100.00
27202;BME280;14717;46.924;15.474;2024-02-16T05:15:02;98284.25;;;0.07;100.00
27202;BME280;14717;46.924;15.474;2024-02-16T05:17:27;98278.81;;;0.07;100.00
27202;BME280;14717;46.924;15.474;2024-02-16T05:19:53;98283.22;;;0.02;100.00
27202;BME280;14717;46.924;15.474;2024-02-16T05:22:21;98284.66;;;0.04;100.00
27202;BME280;14717;46.924;15.474;2024-02-16T05:24:47;98289.47;;;0.09;100.00
27202;BME280;14717;46.924;15.474;2024-02-16T05:27:13;98291.72;;;0.18;100.00
27202;BME280;14717;46.924;15.474;2024-02-16T05:29:38;98299.84;;;0.18;100.00
27202;BME280;14717;46.924;15.474;2024-02-16T05:32:04;98291.69;;;0.25;100.00
27202;BME280;14717;46.924;15.474;2024-02-16T05:34:29;98295.59;;;0.29;100.00
27202;BME280;14717;46.924;15.474;2024-02-16T05:37:05;98296.09;;;0.13;100.00
27202;BME280;14717;46.924;15.474;2024-02-16T05:39:36;98297.59;;;0.09;100.00
27202;BME280;14717;46.924;15.474;2024-02-16T05:42:08;98295.72;;;0.09;100.00
27202;BME280;14717;46.924;15.474;2024-02-16T05:44:34;98294.09;;;0.02;100.00
27202;BME280;14717;46.924;15.474;2024-02-16T05:46:59;98299.13;;;-0.01;100.00
27202;BME280;14717;46.924;15.474;2024-02-16T05:49:24;98295.91;;;0.08;100.00
27202;BME280;14717;46.924;15.474;2024-02-16T05:51:50;98298.00;;;0.12;100.00
27202;BME280;14717;46.924;15.474;2024-02-16T05:54:34;98305.50;;;0.17;100.00
27202;BME280;14717;46.924;15.474;2024-02-16T05:56:59;98305.13;;;0.07;100.00
27202;BME280;14717;46.924;15.474;2024-02-16T05:59:24;98303.47;;;0.06;100.00
27202;BME280;14717;46.924;15.474;2024-02-16T06:01:52;98305.09;;;0.13;100.00
27202;BME280;14717;46.924;15.474;2024-02-16T06:04:17;98308.44;;;0.15;100.00
27202;BME280;14717;46.924;15.474;2024-02-16T06:06:42;98311.16;;;0.15;100.00
27202;BME280;14717;46.924;15.474;2024-02-16T06:09:08;98318.66;;;0.20;100.00
27202;BME280;14717;46.924;15.474;2024-02-16T06:11:36;98314.28;;;0.12;100.00
27202;BME280;14717;46.924;15.474;2024-02-16T06:14:02;98317.22;;;0.11;100.00
27202;BME280;14717;46.924;15.474;2024-02-16T06:16:27;98316.59;;;0.09;100.00
27202;BME280;14717;46.924;15.474;2024-02-16T06:18:53;98319.59;;;-0.05;100.00
27202;BME280;14717;46.924;15.474;2024-02-16T06:21:18;98331.09;;;-0.10;100.00
27202;BME280;14717;46.924;15.474;2024-02-16T06:23:43;98321.03;;;0.03;100.00
27202;BME280;14717;46.924;15.474;2024-02-16T06:26:09;98325.16;;;0.12;100.00
27202;BME280;14717;46.924;15.474;2024-02-16T06:28:34;98327.66;;;0.14;100.00
27202;BME280;14717;46.924;15.474;2024-02-16T06:30:59;98331.38;;;0.19;100.00
27202;BME280;14717;46.924;15.474;2024-02-16T06:33:25;98329.22;;;0.28;100.00
27202;BME280;14717;46.924;15.474;2024-02-16T06:35:50;98336.28;;;0.42;100.00
27202;BME280;14717;46.924;15.474;2024-02-16T06:38:16;98331.81;;;0.53;100.00
27202;BME280;14717;46.924;15.474;2024-02-16T06:40:41;98338.19;;;0.65;100.00
27202;BME280;14717;46.924;15.474;2024-02-16T06:43:06;98331.28;;;0.69;100.00
27202;BME280;14717;46.924;15.474;2024-02-16T06:45:32;98330.78;;;0.79;100.00
27202;BME280;14717;46.924;15.474;2024-02-16T06:47:58;98342.38;;;0.92;100.00
27202;BME280;14717;46.924;15.474;2024-02-16T06:50:23;98338.38;;;1.01;100.00
27202;BME280;14717;46.924;15.474;2024-02-16T06:52:48;98347.47;;;1.13;100.00
27202;BME280;14717;46.924;15.474;2024-02-16T06:55:14;98351.56;;;1.22;100.00
27202;BME280;14717;46.924;15.474;2024-02-16T06:57:39;98356.56;;;1.25;100.00
27202;BME280;14717;46.924;15.474;2024-02-16T07:00:05;98359.13;;;1.20;100.00
27202;BME280;14717;46.924;15.474;2024-02-16T07:02:31;98365.25;;;1.15;100.00
27202;BME280;14717;46.924;15.474;2024-02-16T07:04:56;98365.97;;;1.28;100.00
27202;BME280;14717;46.924;15.474;2024-02-16T07:07:21;98368.09;;;1.44;100.00
27202;BME280;14717;46.924;15.474;2024-02-16T07:09:46;98362.31;;;1.59;100.00
27202;BME280;14717;46.924;15.474;2024-02-16T07:12:12;98364.22;;;1.58;100.00
27202;BME280;14717;46.924;15.474;2024-02-16T07:14:37;98362.53;;;1.57;100.00
27202;BME280;14717;46.924;15.474;2024-02-16T07:17:03;98364.16;;;1.65;100.00
27202;BME280;14717;46.924;15.474;2024-02-16T07:19:28;98358.16;;;1.74;100.00
27202;BME280;14717;46.924;15.474;2024-02-16T07:21:54;98353.41;;;1.87;100.00
27202;BME280;14717;46.924;15.474;2024-02-16T07:24:19;98357.06;;;1.99;100.00
27202;BME280;14717;46.924;15.474;2024-02-16T07:26:45;98356.06;;;2.11;100.00
27202;BME280;14717;46.924;15.474;2024-02-16T07:29:10;98355.44;;;2.27;100.00
27202;BME280;14717;46.924;15.474;2024-02-16T07:31:38;98356.78;;;2.36;100.00
27202;BME280;14717;46.924;15.474;2024-02-16T07:34:03;98359.81;;;2.28;100.00
27202;BME280;14717;46.924;15.474;2024-02-16T07:36:29;98357.38;;;2.38;100.00
27202;BME280;14717;46.924;15.474;2024-02-16T07:38:55;98346.31;;;2.51;100.00
27202;BME280;14717;46.924;15.474;2024-02-16T07:41:20;98357.88;;;2.64;100.00
27202;BME280;14717;46.924;15.474;2024-02-16T07:43:45;98352.53;;;2.58;100.00
27202;BME280;14717;46.924;15.474;2024-02-16T07:46:11;98354.53;;;2.62;100.00
27202;BME280;14717;46.924;15.474;2024-02-16T07:48:36;98358.66;;;2.83;100.00
27202;BME280;14717;46.924;15.474;2024-02-16T07:51:02;98354.34;;;3.04;100.00
27202;BME280;14717;46.924;15.474;2024-02-16T07:53:29;98354.13;;;3.17;100.00
27202;BME280;14717;46.924;15.474;2024-02-16T07:55:54;98362.69;;;3.32;100.00
27202;BME280;14717;46.924;15.474;2024-02-16T07:58:20;98358.09;;;3.44;100.00
27202;BME280;14717;46.924;15.474;2024-02-16T08:00:45;98360.69;;;3.39;100.00
27202;BME280;14717;46.924;15.474;2024-02-16T08:03:11;98359.84;;;3.50;100.00
27202;BME280;14717;46.924;15.474;2024-02-16T08:05:36;98362.72;;;3.66;100.00
27202;BME280;14717;46.924;15.474;2024-02-16T08:08:02;98355.84;;;3.75;100.00
27202;BME280;14717;46.924;15.474;2024-02-16T08:10:28;98361.06;;;3.77;100.00
27202;BME280;14717;46.924;15.474;2024-02-16T08:12:53;98356.31;;;3.83;100.00
27202;BME280;14717;46.924;15.474;2024-02-16T08:15:19;98347.88;;;3.96;100.00
27202;BME280;14717;46.924;15.474;2024-02-16T08:17:48;98352.22;;;4.20;100.00
27202;BME280;14717;46.924;15.474;2024-02-16T08:20:15;98344.31;;;4.35;100.00
27202;BME280;14717;46.924;15.474;2024-02-16T08:22:40;98347.66;;;4.37;100.00
27202;BME280;14717;46.924;15.474;2024-02-16T08:25:06;98347.84;;;4.47;100.00
27202;BME280;14717;46.924;15.474;2024-02-16T08:27:32;98341.16;;;4.65;100.00
27202;BME280;14717;46.924;15.474;2024-02-16T08:29:57;98334.03;;;4.81;100.00
27202;BME280;14717;46.924;15.474;2024-02-16T08:32:23;98339.56;;;4.97;100.00
27202;BME280;14717;46.924;15.474;2024-02-16T08:34:48;98347.63;;;5.04;100.00
27202;BME280;14717;46.924;15.474;2024-02-16T08:37:15;98343.56;;;5.06;100.00
27202;BME280;14717;46.924;15.474;2024-02-16T08:39:41;98341.03;;;5.16;100.00
27202;BME280;14717;46.924;15.474;2024-02-16T08:42:07;98351.06;;;5.27;100.00
27202;BME280;14717;46.924;15.474;2024-02-16T08:44:34;98345.44;;;5.49;100.00
27202;BME280;14717;46.924;15.474;2024-02-16T08:46:59;98348.97;;;5.66;100.00
27202;BME280;14717;46.924;15.474;2024-02-16T08:49:25;98349.91;;;5.88;100.00
27202;BME280;14717;46.924;15.474;2024-02-16T08:51:50;98347.53;;;6.13;100.00
27202;BME280;14717;46.924;15.474;2024-02-16T08:54:16;98337.38;;;6.30;100.00
27202;BME280;14717;46.924;15.474;2024-02-16T08:56:55;98341.69;;;6.47;100.00
27202;BME280;14717;46.924;15.474;2024-02-16T08:59:24;98336.78;;;6.49;100.00
27202;BME280;14717;46.924;15.474;2024-02-16T09:01:53;98343.81;;;6.40;100.00
27202;BME280;14717;46.924;15.474;2024-02-16T09:04:23;98341.63;;;6.42;100.00
27202;BME280;14717;46.924;15.474;2024-02-16T09:06:49;98337.13;;;6.52;100.00
27202;BME280;14717;46.924;15.474;2024-02-16T09:09:16;98343.19;;;6.54;100.00
27202;BME280;14717;46.924;15.474;2024-02-16T09:11:41;98339.50;;;6.70;100.00
27202;BME280;14717;46.924;15.474;2024-02-16T09:14:06;98329.41;;;6.97;100.00
27202;BME280;14717;46.924;15.474;2024-02-16T09:16:35;98338.09;;;7.15;100.00
27202;BME280;14717;46.924;15.474;2024-02-16T09:19:01;98338.00;;;7.31;100.00
27202;BME280;14717;46.924;15.474;2024-02-16T09:21:29;98336.94;;;7.37;100.00
27202;BME280;14717;46.924;15.474;2024-02-16T09:23:55;98336.47;;;7.45;100.00
27202;BME280;14717;46.924;15.474;2024-02-16T09:26:26;98332.81;;;7.66;100.00
27202;BME280;14717;46.924;15.474;2024-02-16T09:28:55;98331.59;;;7.88;100.00
27202;BME280;14717;46.924;15.474;2024-02-16T09:31:23;98335.91;;;8.10;100.00
27202;BME280;14717;46.924;15.474;2024-02-16T09:33:48;98334.81;;;8.16;100.00
27202;BME280;14717;46.924;15.474;2024-02-16T09:36:20;98334.66;;;8.38;100.00
27202;BME280;14717;46.924;15.474;2024-02-16T09:38:46;98334.75;;;8.52;99.95
27202;BME280;14717;46.924;15.474;2024-02-16T09:41:12;98336.75;;;8.67;97.10
27202;BME280;14717;46.924;15.474;2024-02-16T09:43:40;98339.56;;;8.82;98.53
27202;BME280;14717;46.924;15.474;2024-02-16T09:46:07;98330.53;;;8.96;98.37
27202;BME280;14717;46.924;15.474;2024-02-16T09:48:39;98340.47;;;9.07;97.26
27202;BME280;14717;46.924;15.474;2024-02-16T09:51:07;98334.13;;;9.06;98.33
27202;BME280;14717;46.924;15.474;2024-02-16T09:53:36;98346.00;;;9.22;94.92
27202;BME280;14717;46.924;15.474;2024-02-16T09:56:01;98338.88;;;9.26;93.98
27202;BME280;14717;46.924;15.474;2024-02-16T09:58:30;98336.41;;;9.44;93.40
27202;BME280;14717;46.924;15.474;2024-02-16T10:00:56;98335.31;;;9.50;91.89
27202;BME280;14717;46.924;15.474;2024-02-16T10:05:52;98340.28;;;9.58;93.31
27202;BME280;14717;46.924;15.474;2024-02-16T10:08:18;98335.06;;;9.71;92.24
27202;BME280;14717;46.924;15.474;2024-02-16T10:10:43;98333.41;;;9.80;88.98
27202;BME280;14717;46.924;15.474;2024-02-16T10:13:09;98332.00;;;10.07;89.79
27202;BME280;14717;46.924;15.474;2024-02-16T10:15:37;98335.88;;;10.21;89.50
27202;BME280;14717;46.924;15.474;2024-02-16T10:18:06;98330.88;;;10.23;86.58
27202;BME280;14717;46.924;15.474;2024-02-16T10:20:33;98323.94;;;10.45;88.13
27202;BME280;14717;46.924;15.474;2024-02-16T10:23:10;98326.94;;;10.59;85.28
27202;BME280;14717;46.924;15.474;2024-02-16T10:25:37;98319.16;;;10.65;83.71
27202;BME280;14717;46.924;15.474;2024-02-16T10:28:08;98326.91;;;10.63;85.36
27202;BME280;14717;46.924;15.474;2024-02-16T10:30:38;98316.84;;;10.87;82.99
27202;BME280;14717;46.924;15.474;2024-02-16T10:33:07;98318.09;;;10.62;84.03
27202;BME280;14717;46.924;15.474;2024-02-16T10:35:35;98315.78;;;10.83;85.27
27202;BME280;14717;46.924;15.474;2024-02-16T10:38:07;98312.94;;;10.98;83.41
27202;BME280;14717;46.924;15.474;2024-02-16T10:40:40;98306.72;;;11.21;84.73
27202;BME280;14717;46.924;15.474;2024-02-16T10:43:06;98310.53;;;11.30;83.18
27202;BME280;14717;46.924;15.474;2024-02-16T10:45:36;98306.59;;;11.41;81.38
27202;BME280;14717;46.924;15.474;2024-02-16T10:48:03;98296.91;;;11.38;81.43
27202;BME280;14717;46.924;15.474;2024-02-16T10:50:31;98294.41;;;11.47;79.80
27202;BME280;14717;46.924;15.474;2024-02-16T10:52:58;98297.69;;;11.53;80.15
27202;BME280;14717;46.924;15.474;2024-02-16T10:55:26;98291.78;;;11.60;81.45
27202;BME280;14717;46.924;15.474;2024-02-16T10:57:51;98288.63;;;11.76;79.71
27202;BME280;14717;46.924;15.474;2024-02-16T11:00:20;98276.00;;;11.65;79.58
27202;BME280;14717;46.924;15.474;2024-02-16T11:02:52;98280.03;;;11.78;78.77
27202;BME280;14717;46.924;15.474;2024-02-16T11:05:18;98277.91;;;11.98;80.20
27202;BME280;14717;46.924;15.474;2024-02-16T11:07:44;98282.50;;;12.07;77.22
27202;BME280;14717;46.924;15.474;2024-02-16T11:10:12;98279.41;;;12.14;78.03
27202;BME280;14717;46.924;15.474;2024-02-16T11:12:43;98280.72;;;12.21;75.30
27202;BME280;14717;46.924;15.474;2024-02-16T11:15:11;98274.78;;;12.32;75.56
27202;BME280;14717;46.924;15.474;2024-02-16T11:17:38;98269.41;;;12.41;74.09
27202;BME280;14717;46.924;15.474;2024-02-16T11:20:06;98270.13;;;12.51;73.47
27202;BME280;14717;46.924;15.474;2024-02-16T11:22:36;98259.19;;;12.60;74.00
27202;BME280;14717;46.924;15.474;2024-02-16T11:25:04;98265.69;;;12.74;72.98
27202;BME280;14717;46.924;15.474;2024-02-16T11:27:31;98259.91;;;12.93;73.88
27202;BME280;14717;46.924;15.474;2024-02-16T11:29:58;98256.78;;;13.00;70.92
27202;BME280;14717;46.924;15.474;2024-02-16T11:32:25;98259.69;;;12.90;70.71
27202;BME280;14717;46.924;15.474;2024-02-16T11:34:50;98249.94;;;12.69;70.25
27202;BME280;14717;46.924;15.474;2024-02-16T11:37:16;98240.22;;;12.48;71.57
27202;BME280;14717;46.924;15.474;2024-02-16T11:39:42;98246.72;;;12.85;73.71
27202;BME280;14717;46.924;15.474;2024-02-16T11:42:12;98236.34;;;12.91;71.23
27202;BME280;14717;46.924;15.474;2024-02-16T11:44:39;98242.22;;;13.08;70.38
27202;BME280;14717;46.924;15.474;2024-02-16T11:47:06;98241.31;;;12.94;68.69
27202;BME280;14717;46.924;15.474;2024-02-16T11:49:37;98237.88;;;13.02;71.60
27202;BME280;14717;46.924;15.474;2024-02-16T11:52:07;98235.09;;;13.20;69.72
27202;BME280;14717;46.924;15.474;2024-02-16T11:54:32;98241.47;;;13.20;68.19
27202;BME280;14717;46.924;15.474;2024-02-16T11:56:58;98241.47;;;13.20;68.66
27202;BME280;14717;46.924;15.474;2024-02-16T11:59:24;98236.91;;;13.29;68.52
27202;BME280;14717;46.924;15.474;2024-02-16T12:01:54;98230.06;;;13.40;66.51
27202;BME280;14717;46.924;15.474;2024-02-16T12:07:00;98223.31;;;13.46;67.30
27202;BME280;14717;46.924;15.474;2024-02-16T12:09:26;98228.00;;;13.64;65.89
27202;BME280;14717;46.924;15.474;2024-02-16T12:11:53;98226.69;;;13.75;64.48
27202;BME280;14717;46.924;15.474;2024-02-16T12:14:20;98224.25;;;13.55;66.22
27202;BME280;14717;46.924;15.474;2024-02-16T12:16:56;98217.63;;;13.69;65.34
27202;BME280;14717;46.924;15.474;2024-02-16T12:19:22;98211.72;;;13.58;67.38
27202;BME280;14717;46.924;15.474;2024-02-16T12:21:55;98215.16;;;13.68;66.52
27202;BME280;14717;46.924;15.474;2024-02-16T12:24:24;98216.28;;;13.99;64.59
27202;BME280;14717;46.924;15.474;2024-02-16T12:26:49;98211.59;;;14.12;62.48
27202;BME280;14717;46.924;15.474;2024-02-16T12:29:16;98210.56;;;14.08;63.24
27202;BME280;14717;46.924;15.474;2024-02-16T12:31:46;98215.84;;;13.92;61.74
27202;BME280;14717;46.924;15.474;2024-02-16T12:34:13;98216.63;;;14.10;61.58
27202;BME280;14717;46.924;15.474;2024-02-16T12:36:39;98217.03;;;14.04;61.99
27202;BME280;14717;46.924;15.474;2024-02-16T12:39:05;98216.53;;;14.15;62.06
27202;BME280;14717;46.924;15.474;2024-02-16T12:41:34;98211.19;;;14.19;61.83
27202;BME280;14717;46.924;15.474;2024-02-16T12:44:00;98214.25;;;14.17;60.89
27202;BME280;14717;46.924;15.474;2024-02-16T12:46:26;98208.38;;;14.05;61.22
27202;BME280;14717;46.924;15.474;2024-02-16T12:48:53;98212.19;;;14.23;59.39
27202;BME280;14717;46.924;15.474;2024-02-16T12:51:18;98215.84;;;14.50;58.99